sensor_id;sensor_type;location;lat;lon;timestamp;temperature;humidity
51021;DHT22;38907;45.562;8.856;2022-08-23T00:04:08;25.00;88.90
51021;DHT22;38907;45.562;8.856;2022-08-23T00:09:13;25.00;89.10
51021;DHT22;38907;45.562;8.856;2022-08-23T00:14:18;24.80;89.60
51021;DHT22;38907;45.562;8.856;2022-08-23T00:19:23;24.60;90.20
51021;DHT22;38907;45.562;8.856;2022-08-23T00:24:27;24.50;90.50
51021;DHT22;38907;45.562;8.856;2022-08-23T00:29:35;24.40;90.80
51021;DHT22;38907;45.562;8.856;2022-08-23T00:34:38;24.40;90.80
51021;DHT22;38907;45.562;8.856;2022-08-23T00:39:43;24.40;90.70
51021;DHT22;38907;45.562;8.856;2022-08-23T00:44:46;24.50;90.20
51021;DHT22;38907;45.562;8.856;2022-08-23T00:50:14;24.60;89.60
51021;DHT22;38907;45.562;8.856;2022-08-23T00:55:20;24.70;88.30
51021;DHT22;38907;45.562;8.856;2022-08-23T01:00:23;24.60;88.30
51021;DHT22;38907;45.562;8.856;2022-08-23T01:05:35;24.60;88.00
51021;DHT22;38907;45.562;8.856;2022-08-23T01:10:48;24.80;87.10
51021;DHT22;38907;45.562;8.856;2022-08-23T01:15:56;24.80;87.20
51021;DHT22;38907;45.562;8.856;2022-08-23T01:21:04;24.70;88.80
51021;DHT22;38907;45.562;8.856;2022-08-23T01:26:10;24.60;90.60
51021;DHT22;38907;45.562;8.856;2022-08-23T01:31:14;24.40;90.30
51021;DHT22;38907;45.562;8.856;2022-08-23T01:36:17;24.10;90.60
51021;DHT22;38907;45.562;8.856;2022-08-23T01:41:22;23.90;90.20
51021;DHT22;38907;45.562;8.856;2022-08-23T01:46:25;23.90;88.00
51021;DHT22;38907;45.562;8.856;2022-08-23T01:51:27;23.90;87.50
51021;DHT22;38907;45.562;8.856;2022-08-23T01:56:32;23.90;86.80
51021;DHT22;38907;45.562;8.856;2022-08-23T02:01:35;23.90;86.90
51021;DHT22;38907;45.562;8.856;2022-08-23T02:06:38;23.90;86.90
51021;DHT22;38907;45.562;8.856;2022-08-23T02:11:42;23.90;86.60
51021;DHT22;38907;45.562;8.856;2022-08-23T02:16:48;24.00;89.00
51021;DHT22;38907;45.562;8.856;2022-08-23T02:21:51;23.70;90.20
51021;DHT22;38907;45.562;8.856;2022-08-23T02:26:56;23.30;89.70
51021;DHT22;38907;45.562;8.856;2022-08-23T02:32:01;23.30;89.40
51021;DHT22;38907;45.562;8.856;2022-08-23T02:37:04;23.30;88.60
51021;DHT22;38907;45.562;8.856;2022-08-23T02:42:09;23.50;87.40
51021;DHT22;38907;45.562;8.856;2022-08-23T02:47:12;23.60;85.90
51021;DHT22;38907;45.562;8.856;2022-08-23T02:52:15;23.80;84.80
51021;DHT22;38907;45.562;8.856;2022-08-23T02:57:19;23.70;89.70
51021;DHT22;38907;45.562;8.856;2022-08-23T03:02:22;23.50;88.90
51021;DHT22;38907;45.562;8.856;2022-08-23T03:07:27;23.50;88.50
51021;DHT22;38907;45.562;8.856;2022-08-23T03:12:32;23.60;86.40
51021;DHT22;38907;45.562;8.856;2022-08-23T03:17:35;23.70;84.50
51021;DHT22;38907;45.562;8.856;2022-08-23T03:22:37;23.60;84.60
51021;DHT22;38907;45.562;8.856;2022-08-23T03:27:41;23.70;84.00
51021;DHT22;38907;45.562;8.856;2022-08-23T03:32:44;23.60;84.00
51021;DHT22;38907;45.562;8.856;2022-08-23T03:37:47;23.60;83.70
51021;DHT22;38907;45.562;8.856;2022-08-23T03:42:50;23.60;83.60
51021;DHT22;38907;45.562;8.856;2022-08-23T03:47:53;23.40;84.60
51021;DHT22;38907;45.562;8.856;2022-08-23T03:52:56;23.20;86.70
51021;DHT22;38907;45.562;8.856;2022-08-23T03:58:00;22.90;86.30
51021;DHT22;38907;45.562;8.856;2022-08-23T04:03:03;22.80;86.80
51021;DHT22;38907;45.562;8.856;2022-08-23T04:08:09;22.70;86.90
51021;DHT22;38907;45.562;8.856;2022-08-23T04:13:14;22.60;86.70
51021;DHT22;38907;45.562;8.856;2022-08-23T04:18:16;22.90;86.80
51021;DHT22;38907;45.562;8.856;2022-08-23T04:23:18;22.80;87.30
51021;DHT22;38907;45.562;8.856;2022-08-23T04:28:23;22.50;88.00
51021;DHT22;38907;45.562;8.856;2022-08-23T04:33:25;22.60;87.60
51021;DHT22;38907;45.562;8.856;2022-08-23T04:38:28;22.60;87.60
51021;DHT22;38907;45.562;8.856;2022-08-23T04:43:33;22.70;86.50
51021;DHT22;38907;45.562;8.856;2022-08-23T04:48:36;22.90;87.90
51021;DHT22;38907;45.562;8.856;2022-08-23T04:53:39;22.60;90.10
51021;DHT22;38907;45.562;8.856;2022-08-23T04:58:42;22.30;90.30
51021;DHT22;38907;45.562;8.856;2022-08-23T05:03:45;22.20;90.20
51021;DHT22;38907;45.562;8.856;2022-08-23T05:08:48;22.30;91.20
51021;DHT22;38907;45.562;8.856;2022-08-23T05:13:52;22.00;91.20
51021;DHT22;38907;45.562;8.856;2022-08-23T05:18:54;21.90;91.00
51021;DHT22;38907;45.562;8.856;2022-08-23T05:23:57;22.10;90.50
51021;DHT22;38907;45.562;8.856;2022-08-23T05:29:01;22.30;90.50
51021;DHT22;38907;45.562;8.856;2022-08-23T05:34:04;22.50;90.80
51021;DHT22;38907;45.562;8.856;2022-08-23T05:39:07;22.60;91.30
51021;DHT22;38907;45.562;8.856;2022-08-23T05:44:12;22.60;91.10
51021;DHT22;38907;45.562;8.856;2022-08-23T05:49:15;22.70;90.80
51021;DHT22;38907;45.562;8.856;2022-08-23T05:54:18;22.60;90.90
51021;DHT22;38907;45.562;8.856;2022-08-23T05:59:22;22.60;90.70
51021;DHT22;38907;45.562;8.856;2022-08-23T06:04:24;22.90;90.50
51021;DHT22;38907;45.562;8.856;2022-08-23T06:09:27;23.00;89.80
51021;DHT22;38907;45.562;8.856;2022-08-23T06:14:31;23.20;88.70
51021;DHT22;38907;45.562;8.856;2022-08-23T06:19:33;23.50;88.10
51021;DHT22;38907;45.562;8.856;2022-08-23T06:24:37;23.60;87.90
51021;DHT22;38907;45.562;8.856;2022-08-23T06:29:40;23.70;86.70
51021;DHT22;38907;45.562;8.856;2022-08-23T06:34:43;23.90;87.00
51021;DHT22;38907;45.562;8.856;2022-08-23T06:39:45;24.10;87.00
51021;DHT22;38907;45.562;8.856;2022-08-23T06:44:49;24.30;86.80
51021;DHT22;38907;45.562;8.856;2022-08-23T06:49:52;24.70;86.90
51021;DHT22;38907;45.562;8.856;2022-08-23T06:54:55;24.80;87.10
51021;DHT22;38907;45.562;8.856;2022-08-23T07:00:00;25.00;88.50
51021;DHT22;38907;45.562;8.856;2022-08-23T07:05:03;25.20;89.90
51021;DHT22;38907;45.562;8.856;2022-08-23T07:10:07;25.30;89.90
51021;DHT22;38907;45.562;8.856;2022-08-23T07:15:12;25.40;90.40
51021;DHT22;38907;45.562;8.856;2022-08-23T07:20:14;25.50;90.60
51021;DHT22;38907;45.562;8.856;2022-08-23T07:25:17;25.50;90.20
51021;DHT22;38907;45.562;8.856;2022-08-23T07:30:21;25.50;90.10
51021;DHT22;38907;45.562;8.856;2022-08-23T07:35:24;25.70;90.30
51021;DHT22;38907;45.562;8.856;2022-08-23T07:40:26;25.80;89.90
51021;DHT22;38907;45.562;8.856;2022-08-23T07:45:30;25.80;90.30
51021;DHT22;38907;45.562;8.856;2022-08-23T07:50:34;25.90;90.10
51021;DHT22;38907;45.562;8.856;2022-08-23T07:55:38;26.00;90.70
51021;DHT22;38907;45.562;8.856;2022-08-23T08:00:42;26.10;90.50
51021;DHT22;38907;45.562;8.856;2022-08-23T08:05:45;26.00;90.20
51021;DHT22;38907;45.562;8.856;2022-08-23T08:10:53;26.10;90.60
51021;DHT22;38907;45.562;8.856;2022-08-23T08:15:57;26.30;90.60
51021;DHT22;38907;45.562;8.856;2022-08-23T08:21:00;26.40;90.80
51021;DHT22;38907;45.562;8.856;2022-08-23T08:26:06;26.60;91.10
51021;DHT22;38907;45.562;8.856;2022-08-23T08:31:10;26.60;90.80
51021;DHT22;38907;45.562;8.856;2022-08-23T08:36:28;26.70;90.40
51021;DHT22;38907;45.562;8.856;2022-08-23T08:41:47;26.80;90.60
51021;DHT22;38907;45.562;8.856;2022-08-23T08:46:54;26.90;90.80
51021;DHT22;38907;45.562;8.856;2022-08-23T08:52:02;27.00;90.70
51021;DHT22;38907;45.562;8.856;2022-08-23T08:57:11;27.10;90.00
51021;DHT22;38907;45.562;8.856;2022-08-23T09:02:18;27.10;90.10
51021;DHT22;38907;45.562;8.856;2022-08-23T09:07:26;27.10;90.20
51021;DHT22;38907;45.562;8.856;2022-08-23T09:12:41;27.20;90.40
51021;DHT22;38907;45.562;8.856;2022-08-23T09:17:51;27.20;90.30
51021;DHT22;38907;45.562;8.856;2022-08-23T09:23:04;27.20;89.60
51021;DHT22;38907;45.562;8.856;2022-08-23T09:28:07;27.30;88.50
51021;DHT22;38907;45.562;8.856;2022-08-23T09:33:16;27.40;89.70
51021;DHT22;38907;45.562;8.856;2022-08-23T09:38:20;27.50;90.00
51021;DHT22;38907;45.562;8.856;2022-08-23T09:43:26;27.60;90.20
51021;DHT22;38907;45.562;8.856;2022-08-23T09:48:35;27.50;89.60
51021;DHT22;38907;45.562;8.856;2022-08-23T09:53:40;27.80;89.40
51021;DHT22;38907;45.562;8.856;2022-08-23T09:58:46;28.00;88.80
51021;DHT22;38907;45.562;8.856;2022-08-23T10:04:11;28.10;87.70
51021;DHT22;38907;45.562;8.856;2022-08-23T10:09:24;28.30;87.50
51021;DHT22;38907;45.562;8.856;2022-08-23T10:14:28;28.10;87.50
51021;DHT22;38907;45.562;8.856;2022-08-23T10:19:40;28.10;87.30
51021;DHT22;38907;45.562;8.856;2022-08-23T10:24:47;28.30;87.40
51021;DHT22;38907;45.562;8.856;2022-08-23T10:29:56;28.40;86.20
51021;DHT22;38907;45.562;8.856;2022-08-23T10:35:22;28.50;86.80
51021;DHT22;38907;45.562;8.856;2022-08-23T10:40:32;28.50;85.50
51021;DHT22;38907;45.562;8.856;2022-08-23T10:45:40;28.60;84.60
51021;DHT22;38907;45.562;8.856;2022-08-23T10:50:50;28.70;84.50
51021;DHT22;38907;45.562;8.856;2022-08-23T10:55:55;28.70;82.50
51021;DHT22;38907;45.562;8.856;2022-08-23T11:01:05;28.90;81.00
51021;DHT22;38907;45.562;8.856;2022-08-23T11:12:02;29.20;80.90
51021;DHT22;38907;45.562;8.856;2022-08-23T11:17:24;29.10;80.50
51021;DHT22;38907;45.562;8.856;2022-08-23T11:22:30;29.10;78.90
51021;DHT22;38907;45.562;8.856;2022-08-23T11:27:35;29.20;78.90
51021;DHT22;38907;45.562;8.856;2022-08-23T11:32:42;29.30;78.70
51021;DHT22;38907;45.562;8.856;2022-08-23T11:37:54;29.40;78.20
51021;DHT22;38907;45.562;8.856;2022-08-23T11:43:04;29.50;77.50
51021;DHT22;38907;45.562;8.856;2022-08-23T11:48:17;29.40;74.50
51021;DHT22;38907;45.562;8.856;2022-08-23T11:53:45;29.60;75.50
51021;DHT22;38907;45.562;8.856;2022-08-23T11:59:02;29.50;74.30
51021;DHT22;38907;45.562;8.856;2022-08-23T12:04:09;29.40;73.80
51021;DHT22;38907;45.562;8.856;2022-08-23T12:14:55;29.90;73.90
51021;DHT22;38907;45.562;8.856;2022-08-23T12:19:59;29.80;73.40
51021;DHT22;38907;45.562;8.856;2022-08-23T12:25:10;29.90;73.40
51021;DHT22;38907;45.562;8.856;2022-08-23T12:30:23;29.90;74.10
51021;DHT22;38907;45.562;8.856;2022-08-23T12:35:33;30.00;73.50
51021;DHT22;38907;45.562;8.856;2022-08-23T12:40:41;30.20;73.30
51021;DHT22;38907;45.562;8.856;2022-08-23T12:45:48;30.30;71.70
51021;DHT22;38907;45.562;8.856;2022-08-23T12:50:54;30.20;72.00
51021;DHT22;38907;45.562;8.856;2022-08-23T12:56:01;30.50;70.90
51021;DHT22;38907;45.562;8.856;2022-08-23T13:01:07;30.60;71.30
51021;DHT22;38907;45.562;8.856;2022-08-23T13:06:20;30.60;72.30
51021;DHT22;38907;45.562;8.856;2022-08-23T13:11:26;30.60;71.40
51021;DHT22;38907;45.562;8.856;2022-08-23T13:16:44;30.50;70.30
51021;DHT22;38907;45.562;8.856;2022-08-23T13:21:47;30.30;70.80
51021;DHT22;38907;45.562;8.856;2022-08-23T13:26:50;30.60;73.30
51021;DHT22;38907;45.562;8.856;2022-08-23T13:31:57;30.70;74.70
51021;DHT22;38907;45.562;8.856;2022-08-23T13:37:02;30.90;74.90
51021;DHT22;38907;45.562;8.856;2022-08-23T13:42:08;30.90;75.30
51021;DHT22;38907;45.562;8.856;2022-08-23T13:47:23;30.90;75.60
51021;DHT22;38907;45.562;8.856;2022-08-23T13:52:26;30.60;74.10
51021;DHT22;38907;45.562;8.856;2022-08-23T13:57:30;30.70;74.20
51021;DHT22;38907;45.562;8.856;2022-08-23T14:02:39;30.70;75.00
51021;DHT22;38907;45.562;8.856;2022-08-23T14:07:41;30.90;74.70
51021;DHT22;38907;45.562;8.856;2022-08-23T14:12:46;30.90;74.80
51021;DHT22;38907;45.562;8.856;2022-08-23T14:17:52;30.90;75.90
51021;DHT22;38907;45.562;8.856;2022-08-23T14:22:56;30.80;75.30
51021;DHT22;38907;45.562;8.856;2022-08-23T14:27:58;30.90;76.00
51021;DHT22;38907;45.562;8.856;2022-08-23T14:33:03;30.90;76.20
51021;DHT22;38907;45.562;8.856;2022-08-23T14:38:06;31.10;76.00
51021;DHT22;38907;45.562;8.856;2022-08-23T14:43:10;31.10;77.70
51021;DHT22;38907;45.562;8.856;2022-08-23T14:48:14;31.00;76.90
51021;DHT22;38907;45.562;8.856;2022-08-23T14:53:20;30.90;77.30
51021;DHT22;38907;45.562;8.856;2022-08-23T14:58:27;30.70;77.10
51021;DHT22;38907;45.562;8.856;2022-08-23T15:03:31;30.90;78.70
51021;DHT22;38907;45.562;8.856;2022-08-23T15:08:38;31.10;77.30
51021;DHT22;38907;45.562;8.856;2022-08-23T15:13:42;31.00;77.20
51021;DHT22;38907;45.562;8.856;2022-08-23T15:18:49;31.10;77.70
51021;DHT22;38907;45.562;8.856;2022-08-23T15:23:52;31.20;77.30
51021;DHT22;38907;45.562;8.856;2022-08-23T15:28:54;31.10;77.10
51021;DHT22;38907;45.562;8.856;2022-08-23T15:33:59;31.20;77.20
51021;DHT22;38907;45.562;8.856;2022-08-23T15:39:01;30.80;75.70
51021;DHT22;38907;45.562;8.856;2022-08-23T15:44:05;31.10;76.30
51021;DHT22;38907;45.562;8.856;2022-08-23T15:49:13;31.00;76.20
51021;DHT22;38907;45.562;8.856;2022-08-23T15:54:19;31.30;75.80
51021;DHT22;38907;45.562;8.856;2022-08-23T15:59:21;31.40;75.60
51021;DHT22;38907;45.562;8.856;2022-08-23T16:04:26;31.10;75.50
51021;DHT22;38907;45.562;8.856;2022-08-23T16:09:28;31.30;76.10
51021;DHT22;38907;45.562;8.856;2022-08-23T16:14:32;31.40;75.70
51021;DHT22;38907;45.562;8.856;2022-08-23T16:19:37;31.30;75.70
51021;DHT22;38907;45.562;8.856;2022-08-23T16:24:40;31.20;76.30
51021;DHT22;38907;45.562;8.856;2022-08-23T16:29:43;31.30;76.10
51021;DHT22;38907;45.562;8.856;2022-08-23T16:34:47;31.40;76.10
51021;DHT22;38907;45.562;8.856;2022-08-23T16:39:49;31.10;75.10
51021;DHT22;38907;45.562;8.856;2022-08-23T16:44:52;31.00;75.40
51021;DHT22;38907;45.562;8.856;2022-08-23T16:49:56;30.70;75.70
51021;DHT22;38907;45.562;8.856;2022-08-23T16:54:58;30.50;76.00
51021;DHT22;38907;45.562;8.856;2022-08-23T17:00:05;30.30;76.80
51021;DHT22;38907;45.562;8.856;2022-08-23T17:05:15;30.20;77.00
51021;DHT22;38907;45.562;8.856;2022-08-23T17:10:20;30.10;77.40
51021;DHT22;38907;45.562;8.856;2022-08-23T17:15:25;30.00;77.90
51021;DHT22;38907;45.562;8.856;2022-08-23T17:20:31;29.90;78.00
51021;DHT22;38907;45.562;8.856;2022-08-23T17:25:34;29.90;78.40
51021;DHT22;38907;45.562;8.856;2022-08-23T17:30:37;29.80;78.10
51021;DHT22;38907;45.562;8.856;2022-08-23T17:35:42;29.70;78.50
51021;DHT22;38907;45.562;8.856;2022-08-23T17:40:46;29.70;78.60
51021;DHT22;38907;45.562;8.856;2022-08-23T17:45:50;29.60;78.90
51021;DHT22;38907;45.562;8.856;2022-08-23T17:50:55;29.50;79.10
51021;DHT22;38907;45.562;8.856;2022-08-23T17:55:59;29.40;78.80
51021;DHT22;38907;45.562;8.856;2022-08-23T18:01:03;29.30;79.20
51021;DHT22;38907;45.562;8.856;2022-08-23T18:06:11;29.30;79.60
51021;DHT22;38907;45.562;8.856;2022-08-23T18:11:13;29.10;79.60
51021;DHT22;38907;45.562;8.856;2022-08-23T18:16:16;29.00;79.60
51021;DHT22;38907;45.562;8.856;2022-08-23T18:21:21;28.90;79.60
51021;DHT22;38907;45.562;8.856;2022-08-23T18:26:25;28.80;80.20
51021;DHT22;38907;45.562;8.856;2022-08-23T18:31:45;28.60;80.60
51021;DHT22;38907;45.562;8.856;2022-08-23T18:36:49;28.60;80.90
51021;DHT22;38907;45.562;8.856;2022-08-23T18:41:53;28.40;82.50
51021;DHT22;38907;45.562;8.856;2022-08-23T18:46:56;28.10;82.50
51021;DHT22;38907;45.562;8.856;2022-08-23T18:52:01;28.00;83.00
51021;DHT22;38907;45.562;8.856;2022-08-23T18:57:04;27.90;82.50
51021;DHT22;38907;45.562;8.856;2022-08-23T19:02:07;27.80;82.50
51021;DHT22;38907;45.562;8.856;2022-08-23T19:07:11;27.80;82.00
51021;DHT22;38907;45.562;8.856;2022-08-23T19:12:15;27.80;81.80
51021;DHT22;38907;45.562;8.856;2022-08-23T19:17:18;27.70;83.10
51021;DHT22;38907;45.562;8.856;2022-08-23T19:22:22;27.60;84.50
51021;DHT22;38907;45.562;8.856;2022-08-23T19:27:25;27.50;85.70
51021;DHT22;38907;45.562;8.856;2022-08-23T19:32:27;27.60;85.80
51021;DHT22;38907;45.562;8.856;2022-08-23T19:37:33;27.60;85.90
51021;DHT22;38907;45.562;8.856;2022-08-23T19:42:36;27.60;85.00
51021;DHT22;38907;45.562;8.856;2022-08-23T19:47:39;27.60;84.40
51021;DHT22;38907;45.562;8.856;2022-08-23T19:52:44;27.60;83.50
51021;DHT22;38907;45.562;8.856;2022-08-23T19:57:46;27.50;83.40
51021;DHT22;38907;45.562;8.856;2022-08-23T20:02:49;27.40;83.80
51021;DHT22;38907;45.562;8.856;2022-08-23T20:07:53;27.40;83.80
51021;DHT22;38907;45.562;8.856;2022-08-23T20:12:56;27.10;84.20
51021;DHT22;38907;45.562;8.856;2022-08-23T20:17:58;27.20;84.20
51021;DHT22;38907;45.562;8.856;2022-08-23T20:23:02;27.30;83.60
51021;DHT22;38907;45.562;8.856;2022-08-23T20:28:22;27.20;83.10
51021;DHT22;38907;45.562;8.856;2022-08-23T20:33:25;27.10;81.80
51021;DHT22;38907;45.562;8.856;2022-08-23T20:38:29;27.00;81.60
51021;DHT22;38907;45.562;8.856;2022-08-23T20:43:31;27.10;82.10
51021;DHT22;38907;45.562;8.856;2022-08-23T20:48:35;27.10;81.90
51021;DHT22;38907;45.562;8.856;2022-08-23T20:53:39;27.10;81.30
51021;DHT22;38907;45.562;8.856;2022-08-23T20:58:42;27.00;81.10
51021;DHT22;38907;45.562;8.856;2022-08-23T21:03:45;26.90;82.20
51021;DHT22;38907;45.562;8.856;2022-08-23T21:08:51;26.60;82.70
51021;DHT22;38907;45.562;8.856;2022-08-23T21:13:54;26.40;82.10
51021;DHT22;38907;45.562;8.856;2022-08-23T21:18:58;26.30;82.10
51021;DHT22;38907;45.562;8.856;2022-08-23T21:24:03;26.50;81.90
51021;DHT22;38907;45.562;8.856;2022-08-23T21:29:06;26.40;81.50
51021;DHT22;38907;45.562;8.856;2022-08-23T21:34:09;26.40;80.60
51021;DHT22;38907;45.562;8.856;2022-08-23T21:39:14;26.50;80.00
51021;DHT22;38907;45.562;8.856;2022-08-23T21:44:19;26.40;79.70
51021;DHT22;38907;45.562;8.856;2022-08-23T21:49:23;26.30;79.00
51021;DHT22;38907;45.562;8.856;2022-08-23T21:54:27;26.30;79.10
51021;DHT22;38907;45.562;8.856;2022-08-23T21:59:30;26.40;78.80
51021;DHT22;38907;45.562;8.856;2022-08-23T22:04:32;26.30;78.30
51021;DHT22;38907;45.562;8.856;2022-08-23T22:09:36;26.10;78.40
51021;DHT22;38907;45.562;8.856;2022-08-23T22:14:39;26.10;78.80
51021;DHT22;38907;45.562;8.856;2022-08-23T22:19:42;25.90;79.40
51021;DHT22;38907;45.562;8.856;2022-08-23T22:24:46;25.80;80.00
51021;DHT22;38907;45.562;8.856;2022-08-23T22:29:48;25.80;80.20
51021;DHT22;38907;45.562;8.856;2022-08-23T22:34:53;25.80;80.50
51021;DHT22;38907;45.562;8.856;2022-08-23T22:39:57;25.70;80.90
51021;DHT22;38907;45.562;8.856;2022-08-23T22:45:01;25.60;81.20
51021;DHT22;38907;45.562;8.856;2022-08-23T22:50:05;25.70;81.20
51021;DHT22;38907;45.562;8.856;2022-08-23T22:55:09;25.70;81.50
51021;DHT22;38907;45.562;8.856;2022-08-23T23:00:12;25.60;81.70
51021;DHT22;38907;45.562;8.856;2022-08-23T23:05:16;25.50;82.00
51021;DHT22;38907;45.562;8.856;2022-08-23T23:10:21;25.50;82.30
51021;DHT22;38907;45.562;8.856;2022-08-23T23:15:24;25.40;82.90
51021;DHT22;38907;45.562;8.856;2022-08-23T23:20:27;25.20;83.40
51021;DHT22;38907;45.562;8.856;2022-08-23T23:25:41;25.10;83.80
51021;DHT22;38907;45.562;8.856;2022-08-23T23:30:46;25.10;84.30
51021;DHT22;38907;45.562;8.856;2022-08-23T23:35:50;25.00;84.50
51021;DHT22;38907;45.562;8.856;2022-08-23T23:40:54;25.00;84.80
51021;DHT22;38907;45.562;8.856;2022-08-23T23:45:57;24.80;86.10
51021;DHT22;38907;45.562;8.856;2022-08-23T23:50:59;24.80;86.70
51021;DHT22;38907;45.562;8.856;2022-08-23T23:56:05;24.80;87.00
